sensor_id;sensor_type;location;lat;lon;timestamp;pressure;altitude;pressure_sealevel;temperature;humidity
10518;BME280;5307;42.548;22.968;2024-02-04T00:00:47;94363.63;;;-0.75;100.00
10518;BME280;5307;42.548;22.968;2024-02-04T00:03:14;94376.09;;;-0.60;100.00
10518;BME280;5307;42.548;22.968;2024-02-04T00:05:41;94366.63;;;-0.53;100.00
10518;BME280;5307;42.548;22.968;2024-02-04T00:08:07;94351.00;;;-0.44;100.00
10518;BME280;5307;42.548;22.968;2024-02-04T00:10:35;94357.09;;;-0.47;100.00
10518;BME280;5307;42.548;22.968;2024-02-04T00:13:02;94364.19;;;-0.32;100.00
10518;BME280;5307;42.548;22.968;2024-02-04T00:15:31;94356.28;;;-0.21;100.00
10518;BME280;5307;42.548;22.968;2024-02-04T00:17:57;94358.56;;;-0.23;100.00
10518;BME280;5307;42.548;22.968;2024-02-04T00:20:24;94345.53;;;-0.21;100.00
10518;BME280;5307;42.548;22.968;2024-02-04T00:22:53;94341.59;;;-0.31;100.00
10518;BME280;5307;42.548;22.968;2024-02-04T00:25:20;94339.91;;;-0.13;100.00
10518;BME280;5307;42.548;22.968;2024-02-04T00:27:46;94338.50;;;0.01;100.00
10518;BME280;5307;42.548;22.968;2024-02-04T00:30:13;94346.13;;;-0.02;100.00
10518;BME280;5307;42.548;22.968;2024-02-04T00:32:42;94352.47;;;0.17;100.00
10518;BME280;5307;42.548;22.968;2024-02-04T00:35:08;94354.34;;;0.13;100.00
10518;BME280;5307;42.548;22.968;2024-02-04T00:37:35;94354.47;;;0.27;100.00
10518;BME280;5307;42.548;22.968;2024-02-04T00:40:02;94344.03;;;0.15;100.00
10518;BME280;5307;42.548;22.968;2024-02-04T00:42:30;94350.50;;;0.14;100.00
10518;BME280;5307;42.548;22.968;2024-02-04T00:44:57;94354.59;;;0.38;100.00
10518;BME280;5307;42.548;22.968;2024-02-04T00:47:24;94344.16;;;0.29;100.00
10518;BME280;5307;42.548;22.968;2024-02-04T00:49:52;94340.72;;;0.28;100.00
10518;BME280;5307;42.548;22.968;2024-02-04T00:52:19;94342.31;;;0.40;100.00
10518;BME280;5307;42.548;22.968;2024-02-04T00:54:46;94342.81;;;0.49;100.00
10518;BME280;5307;42.548;22.968;2024-02-04T00:57:13;94351.13;;;0.37;100.00
10518;BME280;5307;42.548;22.968;2024-02-04T00:59:39;94345.72;;;0.30;100.00
10518;BME280;5307;42.548;22.968;2024-02-04T01:02:06;94350.88;;;0.49;100.00
10518;BME280;5307;42.548;22.968;2024-02-04T01:04:33;94349.53;;;0.29;100.00
10518;BME280;5307;42.548;22.968;2024-02-04T01:07:01;94345.00;;;-0.01;100.00
10518;BME280;5307;42.548;22.968;2024-02-04T01:09:28;94348.78;;;-0.05;100.00
10518;BME280;5307;42.548;22.968;2024-02-04T01:11:55;94347.63;;;-0.08;100.00
10518;BME280;5307;42.548;22.968;2024-02-04T01:14:22;94351.50;;;-0.02;100.00
10518;BME280;5307;42.548;22.968;2024-02-04T01:16:49;94347.81;;;0.14;100.00
10518;BME280;5307;42.548;22.968;2024-02-04T01:19:16;94347.81;;;0.14;99.55
10518;BME280;5307;42.548;22.968;2024-02-04T01:22:02;94340.97;;;0.16;99.28
10518;BME280;5307;42.548;22.968;2024-02-04T01:24:29;94345.09;;;0.10;98.91
10518;BME280;5307;42.548;22.968;2024-02-04T01:26:56;94344.94;;;0.29;99.22
10518;BME280;5307;42.548;22.968;2024-02-04T01:29:23;94349.41;;;0.18;99.23
10518;BME280;5307;42.548;22.968;2024-02-04T01:31:50;94335.81;;;0.01;98.82
10518;BME280;5307;42.548;22.968;2024-02-04T01:34:17;94326.34;;;0.14;98.96
10518;BME280;5307;42.548;22.968;2024-02-04T01:36:43;94335.97;;;0.15;98.35
10518;BME280;5307;42.548;22.968;2024-02-04T01:39:11;94334.66;;;0.42;99.43
10518;BME280;5307;42.548;22.968;2024-02-04T01:41:38;94325.50;;;0.43;98.91
10518;BME280;5307;42.548;22.968;2024-02-04T01:44:05;94328.59;;;0.49;98.54
10518;BME280;5307;42.548;22.968;2024-02-04T01:46:32;94333.63;;;0.54;98.69
10518;BME280;5307;42.548;22.968;2024-02-04T01:48:59;94322.91;;;0.57;99.19
10518;BME280;5307;42.548;22.968;2024-02-04T01:51:26;94327.06;;;0.51;99.31
10518;BME280;5307;42.548;22.968;2024-02-04T01:53:53;94322.09;;;0.53;99.27
10518;BME280;5307;42.548;22.968;2024-02-04T01:56:21;94327.69;;;0.34;99.33
10518;BME280;5307;42.548;22.968;2024-02-04T01:58:48;94336.13;;;0.33;99.42
10518;BME280;5307;42.548;22.968;2024-02-04T02:01:16;94347.09;;;0.17;98.92
10518;BME280;5307;42.548;22.968;2024-02-04T02:03:42;94345.00;;;-0.01;98.75
10518;BME280;5307;42.548;22.968;2024-02-04T02:06:10;94333.31;;;0.18;98.53
10518;BME280;5307;42.548;22.968;2024-02-04T02:18:17;94318.91;;;0.37;99.25
10518;BME280;5307;42.548;22.968;2024-02-04T02:21:09;94328.88;;;0.37;99.29
10518;BME280;5307;42.548;22.968;2024-02-04T02:23:44;94321.97;;;0.36;98.82
10518;BME280;5307;42.548;22.968;2024-02-04T02:26:17;94317.34;;;0.33;98.64
10518;BME280;5307;42.548;22.968;2024-02-04T02:28:44;94315.69;;;0.21;98.85
10518;BME280;5307;42.548;22.968;2024-02-04T02:31:11;94330.69;;;0.25;98.70
10518;BME280;5307;42.548;22.968;2024-02-04T02:33:37;94330.88;;;0.43;98.97
10518;BME280;5307;42.548;22.968;2024-02-04T02:36:09;94333.66;;;0.57;98.35
10518;BME280;5307;42.548;22.968;2024-02-04T02:38:46;94317.88;;;0.52;98.87
10518;BME280;5307;42.548;22.968;2024-02-04T02:41:17;94315.19;;;0.52;99.44
10518;BME280;5307;42.548;22.968;2024-02-04T02:43:44;94315.75;;;0.72;99.31
10518;BME280;5307;42.548;22.968;2024-02-04T02:46:13;94310.00;;;0.74;100.00
10518;BME280;5307;42.548;22.968;2024-02-04T02:48:40;94307.97;;;0.64;100.00
10518;BME280;5307;42.548;22.968;2024-02-04T02:51:07;94306.91;;;0.72;100.00
10518;BME280;5307;42.548;22.968;2024-02-04T02:53:34;94310.47;;;0.86;100.00
10518;BME280;5307;42.548;22.968;2024-02-04T02:56:01;94307.41;;;0.88;100.00
10518;BME280;5307;42.548;22.968;2024-02-04T02:58:29;94309.34;;;0.91;100.00
10518;BME280;5307;42.548;22.968;2024-02-04T03:00:56;94306.59;;;0.84;100.00
10518;BME280;5307;42.548;22.968;2024-02-04T03:03:23;94316.28;;;0.96;100.00
10518;BME280;5307;42.548;22.968;2024-02-04T03:05:50;94318.22;;;0.99;100.00
10518;BME280;5307;42.548;22.968;2024-02-04T03:08:16;94309.72;;;0.89;100.00
10518;BME280;5307;42.548;22.968;2024-02-04T03:10:43;94313.19;;;0.90;100.00
10518;BME280;5307;42.548;22.968;2024-02-04T03:13:10;94300.91;;;0.96;100.00
10518;BME280;5307;42.548;22.968;2024-02-04T03:15:38;94304.66;;;0.81;100.00
10518;BME280;5307;42.548;22.968;2024-02-04T03:18:06;94306.28;;;0.96;100.00
10518;BME280;5307;42.548;22.968;2024-02-04T03:20:33;94313.09;;;0.83;100.00
10518;BME280;5307;42.548;22.968;2024-02-04T03:23:00;94302.53;;;0.53;99.55
10518;BME280;5307;42.548;22.968;2024-02-04T03:25:26;94299.63;;;0.28;99.03
10518;BME280;5307;42.548;22.968;2024-02-04T03:27:54;94300.84;;;0.34;99.16
10518;BME280;5307;42.548;22.968;2024-02-04T03:36:59;94308.66;;;0.50;99.34
10518;BME280;5307;42.548;22.968;2024-02-04T03:39:28;94303.66;;;0.48;99.60
10518;BME280;5307;42.548;22.968;2024-02-04T03:41:55;94284.03;;;0.44;99.90
10518;BME280;5307;42.548;22.968;2024-02-04T03:44:22;94277.16;;;0.50;100.00
10518;BME280;5307;42.548;22.968;2024-02-04T03:46:49;94266.44;;;0.54;100.00
10518;BME280;5307;42.548;22.968;2024-02-04T03:49:16;94265.38;;;0.62;100.00
10518;BME280;5307;42.548;22.968;2024-02-04T03:51:42;94264.56;;;0.58;100.00
10518;BME280;5307;42.548;22.968;2024-02-04T03:54:11;94256.13;;;0.59;100.00
10518;BME280;5307;42.548;22.968;2024-02-04T03:56:37;94264.50;;;0.47;100.00
10518;BME280;5307;42.548;22.968;2024-02-04T03:59:04;94266.81;;;0.52;100.00
10518;BME280;5307;42.548;22.968;2024-02-04T04:01:32;94279.47;;;0.52;100.00
10518;BME280;5307;42.548;22.968;2024-02-04T04:03:59;94292.16;;;0.51;100.00
10518;BME280;5307;42.548;22.968;2024-02-04T04:06:25;94294.25;;;0.28;100.00
10518;BME280;5307;42.548;22.968;2024-02-04T04:08:52;94295.88;;;0.36;100.00
10518;BME280;5307;42.548;22.968;2024-02-04T04:11:20;94300.31;;;0.18;100.00
10518;BME280;5307;42.548;22.968;2024-02-04T04:13:48;94280.28;;;0.08;100.00
10518;BME280;5307;42.548;22.968;2024-02-04T04:16:14;94276.34;;;-0.02;100.00
10518;BME280;5307;42.548;22.968;2024-02-04T04:18:41;94286.38;;;0.05;100.00
10518;BME280;5307;42.548;22.968;2024-02-04T04:21:08;94272.28;;;0.15;100.00
10518;BME280;5307;42.548;22.968;2024-02-04T04:23:35;94265.84;;;0.27;100.00
10518;BME280;5307;42.548;22.968;2024-02-04T04:26:02;94271.22;;;0.27;100.00
10518;BME280;5307;42.548;22.968;2024-02-04T04:28:30;94276.19;;;0.25;100.00
10518;BME280;5307;42.548;22.968;2024-02-04T04:30:57;94274.25;;;0.22;100.00
10518;BME280;5307;42.548;22.968;2024-02-04T04:33:23;94279.38;;;0.38;100.00
10518;BME280;5307;42.548;22.968;2024-02-04T04:35:50;94294.31;;;0.35;100.00
10518;BME280;5307;42.548;22.968;2024-02-04T04:38:17;94282.81;;;0.38;100.00
10518;BME280;5307;42.548;22.968;2024-02-04T04:40:43;94288.88;;;0.28;100.00
10518;BME280;5307;42.548;22.968;2024-02-04T04:43:10;94273.84;;;0.20;100.00
10518;BME280;5307;42.548;22.968;2024-02-04T04:45:38;94272.44;;;0.33;100.00
10518;BME280;5307;42.548;22.968;2024-02-04T04:48:05;94281.28;;;0.37;100.00
10518;BME280;5307;42.548;22.968;2024-02-04T04:50:33;94280.53;;;0.40;100.00
10518;BME280;5307;42.548;22.968;2024-02-04T04:53:00;94275.16;;;0.37;100.00
10518;BME280;5307;42.548;22.968;2024-02-04T04:55:26;94280.53;;;0.37;100.00
10518;BME280;5307;42.548;22.968;2024-02-04T04:57:53;94288.53;;;0.29;100.00
10518;BME280;5307;42.548;22.968;2024-02-04T05:03:44;94278.94;;;0.32;100.00
10518;BME280;5307;42.548;22.968;2024-02-04T05:06:11;94281.84;;;0.13;100.00
10518;BME280;5307;42.548;22.968;2024-02-04T05:08:37;94279.66;;;0.25;100.00
10518;BME280;5307;42.548;22.968;2024-02-04T05:11:04;94276.66;;;0.31;100.00
10518;BME280;5307;42.548;22.968;2024-02-04T05:13:31;94266.28;;;0.33;100.00
10518;BME280;5307;42.548;22.968;2024-02-04T05:15:58;94270.00;;;0.17;100.00
10518;BME280;5307;42.548;22.968;2024-02-04T05:18:24;94270.78;;;0.18;100.00
10518;BME280;5307;42.548;22.968;2024-02-04T05:20:53;94272.03;;;0.31;100.00
10518;BME280;5307;42.548;22.968;2024-02-04T05:23:20;94265.81;;;0.20;100.00
10518;BME280;5307;42.548;22.968;2024-02-04T05:25:47;94267.81;;;0.30;100.00
10518;BME280;5307;42.548;22.968;2024-02-04T05:28:14;94278.97;;;0.36;100.00
10518;BME280;5307;42.548;22.968;2024-02-04T05:30:41;94285.47;;;0.31;100.00
10518;BME280;5307;42.548;22.968;2024-02-04T05:33:07;94285.47;;;0.31;100.00
10518;BME280;5307;42.548;22.968;2024-02-04T05:35:34;94283.47;;;0.21;100.00
10518;BME280;5307;42.548;22.968;2024-02-04T05:38:04;94292.38;;;0.32;100.00
10518;BME280;5307;42.548;22.968;2024-02-04T05:40:31;94294.66;;;0.30;100.00
10518;BME280;5307;42.548;22.968;2024-02-04T05:42:57;94290.97;;;0.49;100.00
10518;BME280;5307;42.548;22.968;2024-02-04T05:45:24;94286.13;;;0.21;100.00
10518;BME280;5307;42.548;22.968;2024-02-04T05:47:51;94274.22;;;0.18;100.00
10518;BME280;5307;42.548;22.968;2024-02-04T05:50:18;94279.31;;;-0.14;100.00
10518;BME280;5307;42.548;22.968;2024-02-04T05:52:44;94272.94;;;0.02;100.00
10518;BME280;5307;42.548;22.968;2024-02-04T05:55:13;94294.09;;;0.10;100.00
10518;BME280;5307;42.548;22.968;2024-02-04T05:57:39;94291.72;;;0.02;100.00
10518;BME280;5307;42.548;22.968;2024-02-04T06:00:07;94287.91;;;0.03;100.00
10518;BME280;5307;42.548;22.968;2024-02-04T06:02:36;94292.38;;;-0.09;100.00
10518;BME280;5307;42.548;22.968;2024-02-04T06:05:03;94301.78;;;0.12;100.00
10518;BME280;5307;42.548;22.968;2024-02-04T06:07:29;94300.34;;;0.21;100.00
10518;BME280;5307;42.548;22.968;2024-02-04T06:09:56;94309.53;;;0.20;100.00
10518;BME280;5307;42.548;22.968;2024-02-04T06:12:26;94310.34;;;0.28;100.00
10518;BME280;5307;42.548;22.968;2024-02-04T06:14:53;94310.91;;;0.44;100.00
10518;BME280;5307;42.548;22.968;2024-02-04T06:17:20;94314.38;;;0.45;100.00
10518;BME280;5307;42.548;22.968;2024-02-04T06:19:46;94319.00;;;0.48;100.00
10518;BME280;5307;42.548;22.968;2024-02-04T06:22:14;94315.94;;;0.49;100.00
10518;BME280;5307;42.548;22.968;2024-02-04T06:24:41;94316.72;;;0.50;100.00
10518;BME280;5307;42.548;22.968;2024-02-04T06:27:08;94328.75;;;0.70;100.00
10518;BME280;5307;42.548;22.968;2024-02-04T06:29:36;94323.13;;;0.86;100.00
10518;BME280;5307;42.548;22.968;2024-02-04T06:32:05;94321.94;;;0.80;100.00
10518;BME280;5307;42.548;22.968;2024-02-04T06:34:32;94318.91;;;0.85;100.00
10518;BME280;5307;42.548;22.968;2024-02-04T06:36:58;94321.59;;;0.85;100.00
10518;BME280;5307;42.548;22.968;2024-02-04T06:39:25;94327.78;;;0.93;100.00
10518;BME280;5307;42.548;22.968;2024-02-04T06:41:52;94345.41;;;0.86;100.00
10518;BME280;5307;42.548;22.968;2024-02-04T06:44:19;94346.03;;;0.69;100.00
10518;BME280;5307;42.548;22.968;2024-02-04T06:46:47;94333.94;;;0.93;100.00
10518;BME280;5307;42.548;22.968;2024-02-04T06:49:14;94340.16;;;1.04;100.00
10518;BME280;5307;42.548;22.968;2024-02-04T06:51:43;94330.88;;;0.95;100.00
10518;BME280;5307;42.548;22.968;2024-02-04T06:54:10;94328.25;;;1.05;100.00
10518;BME280;5307;42.548;22.968;2024-02-04T06:56:37;94326.00;;;1.14;100.00
10518;BME280;5307;42.548;22.968;2024-02-04T06:59:03;94329.50;;;1.18;100.00
10518;BME280;5307;42.548;22.968;2024-02-04T07:01:30;94328.81;;;1.32;100.00
10518;BME280;5307;42.548;22.968;2024-02-04T07:03:58;94336.88;;;1.36;100.00
10518;BME280;5307;42.548;22.968;2024-02-04T07:06:25;94324.63;;;1.45;100.00
10518;BME280;5307;42.548;22.968;2024-02-04T07:08:52;94345.81;;;1.54;100.00
10518;BME280;5307;42.548;22.968;2024-02-04T07:11:19;94357.78;;;1.57;100.00
10518;BME280;5307;42.548;22.968;2024-02-04T07:13:45;94341.94;;;1.41;99.91
10518;BME280;5307;42.548;22.968;2024-02-04T07:16:12;94341.00;;;1.15;99.00
10518;BME280;5307;42.548;22.968;2024-02-04T07:18:39;94339.75;;;0.99;98.51
10518;BME280;5307;42.548;22.968;2024-02-04T07:21:07;94344.13;;;1.25;98.18
10518;BME280;5307;42.548;22.968;2024-02-04T07:23:34;94341.16;;;1.44;97.11
10518;BME280;5307;42.548;22.968;2024-02-04T07:26:01;94337.97;;;1.24;96.76
10518;BME280;5307;42.548;22.968;2024-02-04T07:28:28;94332.69;;;1.42;96.24
10518;BME280;5307;42.548;22.968;2024-02-04T07:30:55;94345.53;;;1.81;95.17
10518;BME280;5307;42.548;22.968;2024-02-04T07:33:21;94342.50;;;1.86;93.41
10518;BME280;5307;42.548;22.968;2024-02-04T07:35:48;94336.09;;;2.29;91.39
10518;BME280;5307;42.548;22.968;2024-02-04T07:38:16;94323.03;;;2.74;90.14
10518;BME280;5307;42.548;22.968;2024-02-04T07:40:43;94324.88;;;3.41;87.51
10518;BME280;5307;42.548;22.968;2024-02-04T07:43:10;94328.56;;;3.90;84.88
10518;BME280;5307;42.548;22.968;2024-02-04T07:45:37;94330.28;;;3.45;83.93
10518;BME280;5307;42.548;22.968;2024-02-04T07:48:04;94335.19;;;3.82;83.84
10518;BME280;5307;42.548;22.968;2024-02-04T07:50:31;94325.00;;;4.07;83.07
10518;BME280;5307;42.548;22.968;2024-02-04T07:52:58;94320.19;;;4.43;81.44
10518;BME280;5307;42.548;22.968;2024-02-04T07:55:26;94325.09;;;4.59;80.36
10518;BME280;5307;42.548;22.968;2024-02-04T07:57:53;94319.34;;;4.57;78.92
10518;BME280;5307;42.548;22.968;2024-02-04T08:00:20;94325.56;;;4.47;77.81
10518;BME280;5307;42.548;22.968;2024-02-04T08:02:47;94332.75;;;5.20;76.74
10518;BME280;5307;42.548;22.968;2024-02-04T08:05:13;94332.47;;;4.55;76.54
10518;BME280;5307;42.548;22.968;2024-02-04T08:07:40;94329.97;;;4.82;76.76
10518;BME280;5307;42.548;22.968;2024-02-04T08:10:08;94328.94;;;4.65;77.60
10518;BME280;5307;42.548;22.968;2024-02-04T08:12:36;94337.94;;;4.48;78.78
10518;BME280;5307;42.548;22.968;2024-02-04T08:15:03;94323.91;;;4.64;78.56
10518;BME280;5307;42.548;22.968;2024-02-04T08:17:31;94329.81;;;4.48;78.53
10518;BME280;5307;42.548;22.968;2024-02-04T08:19:58;94331.22;;;4.70;78.86
10518;BME280;5307;42.548;22.968;2024-02-04T08:22:26;94316.72;;;4.95;78.04
10518;BME280;5307;42.548;22.968;2024-02-04T08:24:53;94315.69;;;5.64;76.23
10518;BME280;5307;42.548;22.968;2024-02-04T08:27:20;94324.88;;;5.36;76.08
10518;BME280;5307;42.548;22.968;2024-02-04T08:29:48;94325.81;;;5.15;76.07
10518;BME280;5307;42.548;22.968;2024-02-04T08:32:23;94334.50;;;5.41;76.33
10518;BME280;5307;42.548;22.968;2024-02-04T08:34:50;94335.81;;;5.25;75.74
10518;BME280;5307;42.548;22.968;2024-02-04T08:37:16;94328.72;;;4.94;75.83
10518;BME280;5307;42.548;22.968;2024-02-04T08:39:43;94320.53;;;5.01;75.89
10518;BME280;5307;42.548;22.968;2024-02-04T08:42:10;94319.38;;;5.02;76.25
10518;BME280;5307;42.548;22.968;2024-02-04T08:44:36;94333.47;;;5.27;76.49
10518;BME280;5307;42.548;22.968;2024-02-04T08:47:05;94339.53;;;5.39;74.78
10518;BME280;5307;42.548;22.968;2024-02-04T08:49:35;94329.81;;;5.45;74.38
10518;BME280;5307;42.548;22.968;2024-02-04T08:52:03;94338.19;;;5.16;74.78
10518;BME280;5307;42.548;22.968;2024-02-04T08:54:29;94334.53;;;5.33;74.68
10518;BME280;5307;42.548;22.968;2024-02-04T08:56:56;94337.88;;;5.48;74.20
10518;BME280;5307;42.548;22.968;2024-02-04T08:59:23;94344.75;;;5.60;73.71
10518;BME280;5307;42.548;22.968;2024-02-04T09:01:51;94352.94;;;5.53;74.37
10518;BME280;5307;42.548;22.968;2024-02-04T09:04:19;94347.38;;;5.67;73.93
10518;BME280;5307;42.548;22.968;2024-02-04T09:06:46;94339.59;;;5.31;74.80
10518;BME280;5307;42.548;22.968;2024-02-04T09:09:12;94345.66;;;5.46;75.42
10518;BME280;5307;42.548;22.968;2024-02-04T09:11:39;94348.72;;;5.52;75.17
10518;BME280;5307;42.548;22.968;2024-02-04T09:14:06;94344.81;;;5.53;75.19
10518;BME280;5307;42.548;22.968;2024-02-04T09:16:33;94339.41;;;5.53;76.86
10518;BME280;5307;42.548;22.968;2024-02-04T09:19:00;94339.16;;;5.74;76.37
10518;BME280;5307;42.548;22.968;2024-02-04T09:21:28;94344.28;;;6.06;75.63
10518;BME280;5307;42.548;22.968;2024-02-04T09:23:55;94344.88;;;6.17;76.60
10518;BME280;5307;42.548;22.968;2024-02-04T09:26:23;94333.16;;;6.54;76.20
10518;BME280;5307;42.548;22.968;2024-02-04T09:28:49;94328.94;;;7.04;75.76
10518;BME280;5307;42.548;22.968;2024-02-04T09:31:16;94332.34;;;7.31;73.64
10518;BME280;5307;42.548;22.968;2024-02-04T09:33:43;94318.94;;;7.44;72.96
10518;BME280;5307;42.548;22.968;2024-02-04T09:36:10;94317.06;;;7.18;72.49
10518;BME280;5307;42.548;22.968;2024-02-04T09:38:38;94319.31;;;7.23;72.11
10518;BME280;5307;42.548;22.968;2024-02-04T09:41:05;94316.13;;;7.28;72.46
10518;BME280;5307;42.548;22.968;2024-02-04T09:43:32;94314.06;;;7.35;72.07
10518;BME280;5307;42.548;22.968;2024-02-04T09:45:59;94328.75;;;8.01;71.61
10518;BME280;5307;42.548;22.968;2024-02-04T09:48:30;94318.63;;;8.21;69.57
10518;BME280;5307;42.548;22.968;2024-02-04T09:50:58;94322.63;;;8.37;69.22
10518;BME280;5307;42.548;22.968;2024-02-04T09:53:31;94319.06;;;8.92;69.07
10518;BME280;5307;42.548;22.968;2024-02-04T09:56:01;94314.53;;;8.85;66.99
10518;BME280;5307;42.548;22.968;2024-02-04T09:58:29;94320.19;;;9.56;66.41
10518;BME280;5307;42.548;22.968;2024-02-04T10:00:56;94312.44;;;9.55;65.00
10518;BME280;5307;42.548;22.968;2024-02-04T10:03:23;94312.78;;;10.15;64.37
10518;BME280;5307;42.548;22.968;2024-02-04T10:05:49;94302.38;;;10.38;63.59
10518;BME280;5307;42.548;22.968;2024-02-04T10:08:16;94304.91;;;10.96;61.37
10518;BME280;5307;42.548;22.968;2024-02-04T10:10:44;94292.34;;;10.99;61.30
10518;BME280;5307;42.548;22.968;2024-02-04T10:13:12;94287.72;;;11.21;60.49
10518;BME280;5307;42.548;22.968;2024-02-04T10:15:39;94285.34;;;11.58;58.96
10518;BME280;5307;42.548;22.968;2024-02-04T10:18:07;94293.06;;;11.72;58.39
10518;BME280;5307;42.548;22.968;2024-02-04T10:20:34;94289.75;;;11.77;59.95
10518;BME280;5307;42.548;22.968;2024-02-04T10:23:02;94282.75;;;12.42;58.65
10518;BME280;5307;42.548;22.968;2024-02-04T10:25:29;94297.00;;;11.71;59.06
10518;BME280;5307;42.548;22.968;2024-02-04T10:27:56;94284.13;;;11.59;59.49
10518;BME280;5307;42.548;22.968;2024-02-04T10:30:25;94297.47;;;11.10;61.18
10518;BME280;5307;42.548;22.968;2024-02-04T10:32:52;94300.56;;;10.99;61.58
10518;BME280;5307;42.548;22.968;2024-02-04T10:35:20;94291.28;;;10.71;62.06
10518;BME280;5307;42.548;22.968;2024-02-04T10:37:48;94292.78;;;10.47;62.88
10518;BME280;5307;42.548;22.968;2024-02-04T10:40:15;94289.81;;;10.54;63.18
10518;BME280;5307;42.548;22.968;2024-02-04T10:42:42;94289.63;;;10.48;63.12
10518;BME280;5307;42.548;22.968;2024-02-04T10:45:17;94288.19;;;10.31;63.21
10518;BME280;5307;42.548;22.968;2024-02-04T10:47:52;94296.03;;;10.54;63.41
10518;BME280;5307;42.548;22.968;2024-02-04T10:50:22;94284.59;;;10.47;63.93
10518;BME280;5307;42.548;22.968;2024-02-04T10:52:50;94295.94;;;10.45;63.53
10518;BME280;5307;42.548;22.968;2024-02-04T10:55:17;94282.63;;;10.47;63.22
10518;BME280;5307;42.548;22.968;2024-02-04T10:57:49;94288.84;;;10.48;63.32
10518;BME280;5307;42.548;22.968;2024-02-04T11:00:17;94287.22;;;10.63;63.27
10518;BME280;5307;42.548;22.968;2024-02-04T11:02:48;94292.66;;;10.37;63.33
10518;BME280;5307;42.548;22.968;2024-02-04T11:05:16;94277.25;;;10.31;64.31
10518;BME280;5307;42.548;22.968;2024-02-04T11:07:44;94290.16;;;10.43;64.45
10518;BME280;5307;42.548;22.968;2024-02-04T11:10:10;94296.47;;;10.40;64.42
10518;BME280;5307;42.548;22.968;2024-02-04T11:12:40;94303.56;;;10.37;64.85
10518;BME280;5307;42.548;22.968;2024-02-04T11:15:10;94297.00;;;10.22;65.38
10518;BME280;5307;42.548;22.968;2024-02-04T11:24:44;94272.91;;;10.04;66.10
10518;BME280;5307;42.548;22.968;2024-02-04T11:27:41;94252.41;;;10.00;66.38
10518;BME280;5307;42.548;22.968;2024-02-04T11:33:39;94254.00;;;9.97;66.38
10518;BME280;5307;42.548;22.968;2024-02-04T11:36:07;94248.91;;;9.99;66.61
10518;BME280;5307;42.548;22.968;2024-02-04T11:38:39;94240.06;;;10.08;66.78
10518;BME280;5307;42.548;22.968;2024-02-04T11:41:21;94244.13;;;10.16;66.58
10518;BME280;5307;42.548;22.968;2024-02-04T11:43:52;94254.28;;;10.16;66.93
10518;BME280;5307;42.548;22.968;2024-02-04T11:46:19;94253.16;;;10.00;66.69
10518;BME280;5307;42.548;22.968;2024-02-04T11:48:51;94242.66;;;9.99;66.59
10518;BME280;5307;42.548;22.968;2024-02-04T11:51:21;94228.94;;;10.02;66.04
10518;BME280;5307;42.548;22.968;2024-02-04T11:53:49;94221.97;;;10.27;66.00
10518;BME280;5307;42.548;22.968;2024-02-04T11:56:18;94213.34;;;10.16;66.03
10518;BME280;5307;42.548;22.968;2024-02-04T11:58:45;94200.47;;;10.16;66.05
10518;BME280;5307;42.548;22.968;2024-02-04T12:01:12;94206.47;;;10.24;66.14
10518;BME280;5307;42.548;22.968;2024-02-04T12:03:39;94197.66;;;10.32;66.26
10518;BME280;5307;42.548;22.968;2024-02-04T12:06:06;94200.72;;;10.47;65.81
10518;BME280;5307;42.548;22.968;2024-02-04T12:08:34;94202.44;;;10.66;65.49
10518;BME280;5307;42.548;22.968;2024-02-04T12:11:01;94207.56;;;10.64;65.22
10518;BME280;5307;42.548;22.968;2024-02-04T12:13:30;94207.81;;;10.45;65.00
10518;BME280;5307;42.548;22.968;2024-02-04T12:15:57;94189.03;;;10.34;65.31
10518;BME280;5307;42.548;22.968;2024-02-04T12:18:24;94187.94;;;10.31;65.12
10518;BME280;5307;42.548;22.968;2024-02-04T12:20:52;94192.59;;;10.18;65.28
10518;BME280;5307;42.548;22.968;2024-02-04T12:23:20;94190.19;;;10.07;65.63
10518;BME280;5307;42.548;22.968;2024-02-04T12:25:49;94201.66;;;10.02;65.20
10518;BME280;5307;42.548;22.968;2024-02-04T12:28:16;94189.19;;;10.01;65.76
10518;BME280;5307;42.548;22.968;2024-02-04T12:30:52;94191.25;;;9.97;65.71
10518;BME280;5307;42.548;22.968;2024-02-04T12:33:19;94204.78;;;9.88;66.38
10518;BME280;5307;42.548;22.968;2024-02-04T12:35:49;94207.38;;;9.79;67.02
10518;BME280;5307;42.548;22.968;2024-02-04T12:38:16;94193.09;;;9.75;66.41
10518;BME280;5307;42.548;22.968;2024-02-04T12:40:44;94196.34;;;9.70;66.27
10518;BME280;5307;42.548;22.968;2024-02-04T12:43:11;94201.56;;;9.64;67.00
10518;BME280;5307;42.548;22.968;2024-02-04T12:45:38;94200.47;;;9.62;67.51
10518;BME280;5307;42.548;22.968;2024-02-04T12:48:08;94193.81;;;9.63;67.26
10518;BME280;5307;42.548;22.968;2024-02-04T12:50:36;94196.97;;;9.61;67.34
10518;BME280;5307;42.548;22.968;2024-02-04T12:53:04;94192.81;;;9.57;67.93
10518;BME280;5307;42.548;22.968;2024-02-04T12:55:33;94184.28;;;9.55;68.19
10518;BME280;5307;42.548;22.968;2024-02-04T12:58:04;94186.50;;;9.60;67.61
10518;BME280;5307;42.548;22.968;2024-02-04T13:00:31;94191.09;;;9.63;67.78
10518;BME280;5307;42.548;22.968;2024-02-04T13:02:58;94202.88;;;9.60;67.74
10518;BME280;5307;42.548;22.968;2024-02-04T13:05:27;94191.28;;;9.56;67.42
10518;BME280;5307;42.548;22.968;2024-02-04T13:07:56;94204.59;;;9.53;67.60
10518;BME280;5307;42.548;22.968;2024-02-04T13:10:23;94204.25;;;9.51;68.56
10518;BME280;5307;42.548;22.968;2024-02-04T13:13:01;94206.03;;;9.58;68.50
10518;BME280;5307;42.548;22.968;2024-02-04T13:15:29;94210.38;;;9.56;68.19
10518;BME280;5307;42.548;22.968;2024-02-04T13:17:55;94201.84;;;9.53;68.05
10518;BME280;5307;42.548;22.968;2024-02-04T13:20:22;94214.22;;;9.71;67.11
10518;BME280;5307;42.548;22.968;2024-02-04T13:22:50;94215.09;;;9.68;66.73
10518;BME280;5307;42.548;22.968;2024-02-04T13:25:19;94233.97;;;9.62;67.06
10518;BME280;5307;42.548;22.968;2024-02-04T13:27:46;94232.44;;;9.61;67.29
10518;BME280;5307;42.548;22.968;2024-02-04T13:30:13;94227.09;;;9.58;66.80
10518;BME280;5307;42.548;22.968;2024-02-04T13:32:40;94222.56;;;9.51;67.42
10518;BME280;5307;42.548;22.968;2024-02-04T13:35:07;94220.94;;;9.53;66.73
10518;BME280;5307;42.548;22.968;2024-02-04T13:46:18;94208.41;;;9.27;67.78